McAndrews, Kentucky
Current Conditions -  °F | °C
As of 6:35 PM on Saturday 20 Dec 2014 (Local Time) from KPBX Reporting Station
Overcast Overcast  
Wind Chill: 29°   Ceiling: 4400
Heat Index: 34°   Visibility: 10mi
Dew Point: 27°   Wind: 6mph
Humidity: 74%   Direction: 360°N
Pressure: 30.23"   Gusts: NA
Location:  37.57°N, 82.27°W
Report Text: KPBX 202335Z AUTO 36005KT 10SM OVC044 01/M03 A3023 RMK AO2 T00121030
Loading
Personal Weather Stations






























Interactive Weather Map New forecast layout! Learn more

10-Day Weather Forecast

Advertisements
Track Severe Weather on mobile